createdAt,value
2022-08-30T00:00:51.350Z,17.00
2022-08-30T00:05:56.728Z,17.00
2022-08-30T00:11:02.256Z,17.00
2022-08-30T00:16:07.983Z,17.00
2022-08-30T00:21:14.035Z,17.00
2022-08-30T00:26:19.443Z,17.00
2022-08-30T00:31:24.830Z,17.00
2022-08-30T00:36:30.138Z,17.00
2022-08-30T00:41:35.941Z,17.00
2022-08-30T00:46:42.191Z,17.00
2022-08-30T00:51:47.506Z,17.00
2022-08-30T00:56:54.111Z,17.00
2022-08-30T01:02:02.232Z,16.90
2022-08-30T01:07:08.484Z,16.90
2022-08-30T01:12:14.334Z,16.90
2022-08-30T01:17:21.656Z,17.00
2022-08-30T01:22:53.975Z,16.90
2022-08-30T01:28:02.293Z,16.90
2022-08-30T01:33:09.031Z,17.00
2022-08-30T01:38:17.236Z,17.00
2022-08-30T01:43:22.473Z,17.00
2022-08-30T01:48:31.030Z,16.90
2022-08-30T01:53:36.047Z,16.90
2022-08-30T01:58:41.829Z,16.90
2022-08-30T02:03:48.533Z,16.90
2022-08-30T02:08:54.010Z,17.00
2022-08-30T02:13:59.270Z,16.90
2022-08-30T02:19:05.507Z,17.00
2022-08-30T02:24:11.924Z,16.90
2022-08-30T02:29:17.506Z,16.90
2022-08-30T02:34:22.956Z,16.80
2022-08-30T02:39:28.315Z,16.80
2022-08-30T02:44:33.494Z,16.80
2022-08-30T02:49:38.774Z,16.80
2022-08-30T02:54:44.470Z,16.90
2022-08-30T02:59:51.404Z,16.80
2022-08-30T03:04:57.919Z,16.70
2022-08-30T03:10:03.291Z,16.70
2022-08-30T03:15:10.196Z,16.60
2022-08-30T03:20:15.458Z,16.50
2022-08-30T03:25:21.506Z,16.50
2022-08-30T03:30:26.861Z,16.40
2022-08-30T03:35:33.212Z,16.30
2022-08-30T03:40:38.748Z,16.20
2022-08-30T03:45:44.969Z,16.20
2022-08-30T03:50:50.317Z,16.20
2022-08-30T03:55:55.806Z,16.20
2022-08-30T04:01:03.246Z,16.20
2022-08-30T04:06:09.062Z,16.30
2022-08-30T04:11:16.385Z,16.30
2022-08-30T04:16:22.144Z,16.30
2022-08-30T04:21:28.674Z,16.40
2022-08-30T04:26:34.270Z,16.40
2022-08-30T04:31:39.589Z,16.50
2022-08-30T04:36:48.331Z,16.50
2022-08-30T04:41:53.204Z,16.60
2022-08-30T04:46:59.269Z,16.60
2022-08-30T04:52:06.541Z,16.60
2022-08-30T04:57:12.096Z,16.70
2022-08-30T05:02:17.884Z,16.90
2022-08-30T05:07:23.163Z,17.00
2022-08-30T05:12:28.562Z,17.20
2022-08-30T05:17:33.838Z,17.30
2022-08-30T05:22:40.348Z,17.40
2022-08-30T05:27:46.325Z,17.40
2022-08-30T05:32:53.016Z,17.50
2022-08-30T05:37:58.202Z,17.60
2022-08-30T05:43:03.554Z,17.70
2022-08-30T05:48:09.753Z,17.90
2022-08-30T05:53:16.598Z,18.00
2022-08-30T05:58:22.781Z,18.00
2022-08-30T06:03:28.551Z,18.10
2022-08-30T06:08:33.787Z,18.10
2022-08-30T06:13:39.010Z,18.00
2022-08-30T06:18:44.613Z,18.00
2022-08-30T06:23:50.093Z,18.10
2022-08-30T06:28:56.469Z,18.20
2022-08-30T06:34:01.847Z,18.20
2022-08-30T06:39:07.843Z,18.20
2022-08-30T06:44:12.947Z,18.20
2022-08-30T06:49:18.077Z,18.30
2022-08-30T06:54:23.648Z,18.40
2022-08-30T06:59:28.892Z,18.40
2022-08-30T07:04:34.655Z,18.50
2022-08-30T07:09:41.455Z,18.60
2022-08-30T07:14:48.269Z,18.90
2022-08-30T07:20:13.545Z,19.10
2022-08-30T07:25:20.251Z,19.20
2022-08-30T07:30:33.303Z,19.00
2022-08-30T07:35:39.100Z,18.90
2022-08-30T07:40:44.385Z,18.90
2022-08-30T07:45:58.304Z,18.90
2022-08-30T07:51:05.537Z,19.00
2022-08-30T07:56:14.002Z,19.10
2022-08-30T08:01:26.853Z,19.30
2022-08-30T08:06:40.998Z,19.30
2022-08-30T08:12:06.431Z,19.30
2022-08-30T08:17:15.522Z,19.20
2022-08-30T08:27:57.750Z,20.10
2022-08-30T08:33:05.044Z,20.30
2022-08-30T08:38:10.639Z,20.40
2022-08-30T08:43:21.862Z,20.50
2022-08-30T08:48:59.629Z,20.60
2022-08-30T08:53:56.219Z,20.80
2022-08-30T08:59:01.618Z,20.90
2022-08-30T09:04:24.708Z,21.00
2022-08-30T09:09:33.390Z,21.50
2022-08-30T09:14:46.124Z,21.70
2022-08-30T09:19:58.550Z,21.60
2022-08-30T09:25:15.336Z,21.70
2022-08-30T09:30:28.600Z,21.70
2022-08-30T09:35:40.755Z,21.80
2022-08-30T09:40:55.561Z,22.90
2022-08-30T09:46:04.198Z,24.10
2022-08-30T09:51:15.526Z,24.60
2022-08-30T09:56:23.715Z,25.30
2022-08-30T10:01:44.026Z,23.70
2022-08-30T10:06:58.045Z,23.10
2022-08-30T10:12:21.301Z,23.60
2022-08-30T10:17:39.255Z,24.90
2022-08-30T10:23:03.277Z,24.80
2022-08-30T10:28:29.237Z,23.80
2022-08-30T10:33:40.139Z,22.70
2022-08-30T10:38:49.015Z,22.50
2022-08-30T10:43:57.171Z,22.90
2022-08-30T10:49:04.884Z,23.40
2022-08-30T10:54:25.636Z,24.00
2022-08-30T10:59:31.634Z,23.80
2022-08-30T11:05:09.590Z,22.90
2022-08-30T11:10:26.628Z,22.60
2022-08-30T11:15:34.907Z,22.70
2022-08-30T11:20:46.444Z,23.10
2022-08-30T11:25:57.863Z,23.60
2022-08-30T11:31:21.544Z,24.10
2022-08-30T11:36:37.920Z,23.50
2022-08-30T11:41:48.297Z,23.40
2022-08-30T11:46:56.588Z,23.20
2022-08-30T11:52:26.934Z,23.30
2022-08-30T11:57:31.641Z,23.40
2022-08-30T12:03:07.081Z,23.10
2022-08-30T12:08:27.911Z,22.90
2022-08-30T12:13:54.682Z,23.50
2022-08-30T12:19:04.697Z,22.80
2022-08-30T12:24:16.962Z,22.20
2022-08-30T12:29:25.540Z,22.30
2022-08-30T12:34:39.519Z,23.20
2022-08-30T12:39:46.321Z,23.50
2022-08-30T12:44:55.638Z,24.10
2022-08-30T12:50:01.209Z,24.50
2022-08-30T12:55:17.704Z,24.30
2022-08-30T13:00:46.268Z,23.70
2022-08-30T13:05:53.213Z,23.40
2022-08-30T13:11:08.523Z,23.00
2022-08-30T13:16:22.681Z,23.00
2022-08-30T13:21:33.836Z,23.10
2022-08-30T13:26:44.833Z,23.10
2022-08-30T13:31:56.656Z,23.80
2022-08-30T13:37:02.738Z,24.80
2022-08-30T13:47:34.703Z,26.20
2022-08-30T13:52:26.252Z,26.20
2022-08-30T14:03:22.271Z,25.50
2022-08-30T14:14:41.873Z,25.10
2022-08-30T14:20:13.838Z,24.80
2022-08-30T14:25:18.825Z,24.40
2022-08-30T14:30:26.985Z,23.60
2022-08-30T14:35:33.891Z,23.30
2022-08-30T14:40:40.359Z,23.00
2022-08-30T14:45:47.183Z,22.80
2022-08-30T14:50:58.367Z,22.80
2022-08-30T14:56:13.912Z,22.80
2022-08-30T15:01:25.210Z,22.80
2022-08-30T15:06:35.069Z,22.70
2022-08-30T15:11:43.494Z,22.80
2022-08-30T15:16:49.277Z,22.70
2022-08-30T15:21:57.885Z,22.60
2022-08-30T15:27:04.998Z,22.40
2022-08-30T15:32:16.870Z,22.30
2022-08-30T15:37:24.182Z,21.90
2022-08-30T15:42:32.103Z,21.80
2022-08-30T15:47:38.415Z,21.60
2022-08-30T15:52:45.224Z,21.50
2022-08-30T15:57:50.417Z,21.40
2022-08-30T16:02:55.776Z,21.40
2022-08-30T16:08:01.354Z,21.30
2022-08-30T16:13:08.028Z,21.20
2022-08-30T16:18:15.097Z,21.10
2022-08-30T16:23:20.299Z,20.90
2022-08-30T16:28:25.991Z,20.80
2022-08-30T16:33:31.764Z,20.70
2022-08-30T16:38:37.959Z,20.50
2022-08-30T16:43:44.850Z,20.40
2022-08-30T16:48:51.831Z,20.20
2022-08-30T16:54:00.078Z,20.20
2022-08-30T16:59:11.080Z,20.20
2022-08-30T17:04:18.372Z,20.10
2022-08-30T17:09:22.638Z,19.90
2022-08-30T17:14:29.325Z,19.80
2022-08-30T17:19:41.270Z,19.80
2022-08-30T17:24:46.939Z,19.70
2022-08-30T17:29:52.423Z,19.60
2022-08-30T17:35:00.657Z,19.40
2022-08-30T17:40:07.380Z,19.30
2022-08-30T17:45:17.377Z,19.20
2022-08-30T17:50:22.959Z,19.10
2022-08-30T17:55:31.084Z,19.00
2022-08-30T18:00:36.428Z,18.90
2022-08-30T18:05:44.978Z,18.70
2022-08-30T18:10:51.734Z,18.50
2022-08-30T18:15:57.658Z,18.40
2022-08-30T18:21:03.016Z,18.30
2022-08-30T18:26:08.435Z,18.20
2022-08-30T18:31:14.324Z,18.10
2022-08-30T18:36:19.789Z,17.90
2022-08-30T18:41:25.872Z,17.70
2022-08-30T18:46:31.150Z,17.50
2022-08-30T18:51:37.912Z,17.40
2022-08-30T18:56:45.095Z,17.20
2022-08-30T19:01:50.052Z,17.10
2022-08-30T19:06:55.445Z,16.90
2022-08-30T19:12:01.614Z,16.80
2022-08-30T19:17:07.590Z,16.60
2022-08-30T19:22:13.108Z,16.60
2022-08-30T19:27:21.534Z,16.50
2022-08-30T19:32:27.116Z,16.30
2022-08-30T19:37:32.505Z,16.20
2022-08-30T19:42:46.596Z,16.10
2022-08-30T19:47:47.478Z,15.90
2022-08-30T19:52:54.980Z,15.90
2022-08-30T19:58:00.473Z,15.80
2022-08-30T20:03:06.007Z,15.70
2022-08-30T20:08:11.772Z,15.50
2022-08-30T20:13:17.091Z,15.50
2022-08-30T20:18:26.128Z,15.40
2022-08-30T20:23:31.649Z,15.30
2022-08-30T20:28:39.105Z,15.20
2022-08-30T20:33:44.348Z,15.10
2022-08-30T20:38:49.558Z,15.10
2022-08-30T20:43:57.634Z,15.00
2022-08-30T20:49:03.745Z,14.90
2022-08-30T20:54:09.020Z,14.90
2022-08-30T20:59:15.141Z,14.80
2022-08-30T21:04:21.415Z,14.80
2022-08-30T21:09:26.777Z,14.80
2022-08-30T21:14:32.183Z,14.80
2022-08-30T21:19:40.876Z,14.70
2022-08-30T21:24:44.292Z,14.60
2022-08-30T21:29:49.739Z,14.50
2022-08-30T21:35:12.802Z,14.50
2022-08-30T21:40:19.101Z,14.50
2022-08-30T21:45:24.465Z,14.40
2022-08-30T21:50:29.699Z,14.40
2022-08-30T21:55:35.076Z,14.40
2022-08-30T22:00:40.380Z,14.30
2022-08-30T22:05:48.581Z,14.20
2022-08-30T22:10:54.318Z,14.10
2022-08-30T22:15:59.403Z,14.10
2022-08-30T22:21:05.351Z,14.00
2022-08-30T22:26:12.975Z,13.90
2022-08-30T22:31:19.538Z,13.80
2022-08-30T22:36:32.302Z,13.80
2022-08-30T22:41:39.631Z,13.80
2022-08-30T22:46:45.130Z,13.70
2022-08-30T22:51:50.794Z,13.60
2022-08-30T22:56:56.025Z,13.60
2022-08-30T23:02:01.609Z,13.50
2022-08-30T23:07:06.932Z,13.40
2022-08-30T23:12:12.191Z,13.40
2022-08-30T23:17:17.508Z,13.30
2022-08-30T23:22:22.594Z,13.20
2022-08-30T23:27:45.441Z,13.10
2022-08-30T23:33:08.282Z,13.10
2022-08-30T23:38:31.678Z,13.10
2022-08-30T23:43:55.719Z,13.00
2022-08-30T23:49:18.571Z,13.00
2022-08-30T23:54:41.738Z,12.90
